Time;durP1;ratioP1;P1;durP2;ratioP2;P2;SDS_P1;SDS_P2;PMS_P1;PMS_P2;Temp;Humidity;BMP_temperature;BMP_pressure;BME280_temperature;BME280_humidity;BME280_pressure;Samples;Min_cycle;Max_cycle;Signal;HPM_P1;HPM_P2
2021/03/11 00:02:17;;;;;;;;;;;7.10;99.90;;;;;;4948660;29;19910;-70
2021/03/11 00:04:45;;;;;;;;;;;7.10;99.90;;;;;;4948231;29;19994;-70
2021/03/11 00:07:10;;;;;;;;;;;7.10;99.90;;;;;;4948074;29;19929;-70
2021/03/11 00:09:36;;;;;;;;;;;7.00;99.90;;;;;;4947590;29;19910;-70
2021/03/11 00:12:02;;;;;;;;;;;7.00;99.90;;;;;;4946494;29;19910;-71
2021/03/11 00:14:28;;;;;;;;;;;6.90;99.90;;;;;;4943800;29;20141;-71
2021/03/11 00:16:54;;;;;;;;;;;6.90;99.90;;;;;;4948514;29;19920;-71
2021/03/11 00:19:19;;;;;;;;;;;6.80;99.90;;;;;;4949031;28;20004;-71
2021/03/11 00:21:47;;;;;;;;;;;6.80;99.90;;;;;;4948317;28;19925;-71
2021/03/11 00:24:12;;;;;;;;;;;6.70;99.90;;;;;;4947187;29;19922;-71
2021/03/11 00:26:40;;;;;;;;;;;6.70;99.90;;;;;;4963304;28;20358;-71
2021/03/11 00:29:06;;;;;;;;;;;6.70;99.90;;;;;;4960928;28;19926;-72
2021/03/11 00:31:31;;;;;;;;;;;6.80;99.90;;;;;;4945541;29;19918;-71
2021/03/11 00:33:59;;;;;;;;;;;6.70;99.90;;;;;;4947504;29;19911;-71
2021/03/11 00:36:27;;;;;;;;;;;6.70;99.90;;;;;;4949607;29;19965;-71
2021/03/11 00:38:53;;;;;;;;;;;6.70;99.90;;;;;;4947429;29;19985;-71
2021/03/11 00:41:19;;;;;;;;;;;6.70;99.90;;;;;;4948114;29;20383;-71
2021/03/11 00:43:44;;;;;;;;;;;6.70;99.90;;;;;;4947753;28;19910;-71
2021/03/11 00:46:10;;;;;;;;;;;6.70;99.90;;;;;;4962558;28;20704;-71
2021/03/11 00:48:35;;;;;;;;;;;6.70;99.90;;;;;;4947415;29;19914;-71
2021/03/11 00:51:01;;;;;;;;;;;6.70;99.90;;;;;;4946639;29;19973;-71
2021/03/11 00:53:31;;;;;;;;;;;6.70;99.90;;;;;;4947702;28;20352;-71
2021/03/11 00:55:57;;;;;;;;;;;6.70;99.90;;;;;;4949236;28;19973;-71
2021/03/11 00:58:27;;;;;;;;;;;6.70;99.90;;;;;;4946357;28;20037;-71
2021/03/11 01:00:52;;;;;;;;;;;6.70;99.90;;;;;;4947732;29;19914;-70
2021/03/11 01:03:23;;;;;;;;;;;6.70;99.90;;;;;;4948505;29;19947;-71
2021/03/11 01:05:48;;;;;;;;;;;6.60;99.90;;;;;;4946668;29;19921;-70
2021/03/11 01:08:14;;;;;;;;;;;6.60;99.90;;;;;;4946413;29;20328;-71
2021/03/11 01:10:39;;;;;;;;;;;6.60;99.90;;;;;;4950087;28;20277;-71
2021/03/11 01:13:05;;;;;;;;;;;6.70;99.90;;;;;;4947968;29;19918;-70
2021/03/11 01:15:40;;;;;;;;;;;6.70;99.90;;;;;;4947523;28;20448;-71
2021/03/11 01:18:08;;;;;;;;;;;6.60;99.90;;;;;;4946636;29;19982;-71
2021/03/11 01:20:34;;;;;;;;;;;6.70;99.90;;;;;;4946991;28;19910;-71
2021/03/11 01:22:59;;;;;;;;;;;6.70;99.90;;;;;;4948371;29;19911;-71
2021/03/11 01:25:25;;;;;;;;;;;6.70;99.90;;;;;;4948402;29;20264;-71
2021/03/11 01:27:53;;;;;;;;;;;6.70;99.90;;;;;;4946581;28;20343;-71
2021/03/11 01:30:21;;;;;;;;;;;6.70;99.90;;;;;;4946959;29;19910;-71
2021/03/11 01:32:46;;;;;;;;;;;6.60;99.90;;;;;;4943559;29;20014;-71
2021/03/11 01:35:12;;;;;;;;;;;6.60;99.90;;;;;;4947663;28;20358;-71
2021/03/11 01:37:40;;;;;;;;;;;6.50;99.90;;;;;;4946965;28;20423;-71
2021/03/11 01:40:05;;;;;;;;;;;6.50;99.90;;;;;;4945899;29;20001;-71
2021/03/11 01:42:31;;;;;;;;;;;6.50;99.90;;;;;;4946768;29;19982;-71
2021/03/11 01:44:59;;;;;;;;;;;6.50;99.90;;;;;;4928021;29;19918;-71
2021/03/11 01:47:25;;;;;;;;;;;6.50;99.90;;;;;;4946868;29;19922;-70
2021/03/11 01:49:50;;;;;;;;;;;6.50;99.90;;;;;;4948020;29;19914;-71
2021/03/11 01:52:16;;;;;;;;;;;6.60;99.90;;;;;;4945039;29;19937;-71
2021/03/11 01:54:46;;;;;;;;;;;6.60;99.90;;;;;;4945852;29;19918;-71
2021/03/11 01:57:12;;;;;;;;;;;6.60;99.90;;;;;;4946056;29;19918;-71
2021/03/11 01:59:37;;;;;;;;;;;6.60;99.90;;;;;;4946563;29;20077;-71
2021/03/11 02:02:03;;;;;;;;;;;6.60;99.90;;;;;;4944635;28;20411;-71
2021/03/11 02:04:28;;;;;;;;;;;6.60;99.90;;;;;;4947302;29;19914;-72
2021/03/11 02:06:59;;;;;;;;;;;6.60;99.90;;;;;;4944962;28;19922;-71
2021/03/11 02:09:24;;;;;;;;;;;6.60;99.90;;;;;;4944266;28;20340;-71
2021/03/11 02:11:54;;;;;;;;;;;6.50;99.90;;;;;;4945597;29;19922;-71
2021/03/11 02:14:24;;;;;;;;;;;6.60;99.90;;;;;;4964793;28;19911;-71
2021/03/11 02:16:52;;;;;;;;;;;6.60;99.90;;;;;;4947562;29;19915;-71
2021/03/11 02:19:24;;;;;;;;;;;6.50;99.90;;;;;;4960404;28;19914;-71
2021/03/11 02:21:54;;;;;;;;;;;6.60;99.90;;;;;;4944916;29;19910;-71
2021/03/11 02:24:35;;;;;;;;;;;6.50;99.90;;;;;;4944232;28;19997;-71
2021/03/11 02:27:09;;;;;;;;;;;6.50;99.90;;;;;;4945426;29;19921;-71
2021/03/11 02:29:37;;;;;;;;;;;6.50;99.90;;;;;;4945124;28;19910;-71
2021/03/11 02:32:05;;;;;;;;;;;6.50;99.90;;;;;;4945805;29;19981;-71
2021/03/11 02:34:57;;;;;;;;;;;6.50;99.90;;;;;;4945753;28;19919;-71
2021/03/11 02:37:27;;;;;;;;;;;6.50;99.90;;;;;;4944275;29;19926;-71
2021/03/11 02:39:54;;;;;;;;;;;6.50;99.90;;;;;;4927983;29;20427;-71
2021/03/11 02:42:19;;;;;;;;;;;6.50;99.90;;;;;;4963930;28;19918;-71
2021/03/11 02:44:45;;;;;;;;;;;6.60;99.90;;;;;;4928157;29;19945;-71
2021/03/11 02:47:10;;;;;;;;;;;6.60;99.90;;;;;;4944191;29;19910;-71
2021/03/11 02:49:36;;;;;;;;;;;6.60;99.90;;;;;;4928002;29;19921;-71
2021/03/11 02:52:01;;;;;;;;;;;6.60;99.90;;;;;;4943465;29;19919;-71
2021/03/11 02:54:27;;;;;;;;;;;6.60;99.90;;;;;;4948078;29;19946;-71
2021/03/11 02:56:53;;;;;;;;;;;6.70;99.90;;;;;;4943175;29;20470;-71
2021/03/11 02:59:21;;;;;;;;;;;6.70;99.90;;;;;;4940729;29;20483;-71
2021/03/11 03:01:46;;;;;;;;;;;6.70;99.90;;;;;;4927315;29;19942;-71
2021/03/11 03:04:14;;;;;;;;;;;6.80;99.90;;;;;;4945059;29;19911;-71
2021/03/11 03:06:40;;;;;;;;;;;6.70;99.90;;;;;;4944949;29;20054;-71
2021/03/11 03:09:06;;;;;;;;;;;6.70;99.90;;;;;;4947406;29;20005;-71
2021/03/11 03:11:34;;;;;;;;;;;6.80;99.90;;;;;;4945497;29;21264;-72
2021/03/11 03:13:59;;;;;;;;;;;6.80;99.90;;;;;;4942580;29;19993;-71
2021/03/11 03:16:25;;;;;;;;;;;6.80;99.90;;;;;;4959074;28;19954;-71
2021/03/11 03:18:51;;;;;;;;;;;6.80;99.90;;;;;;4944141;29;19929;-71
2021/03/11 03:21:16;;;;;;;;;;;6.80;99.90;;;;;;4945423;29;19930;-71
2021/03/11 03:23:42;;;;;;;;;;;6.90;99.90;;;;;;4946685;29;19921;-71
2021/03/11 03:26:07;;;;;;;;;;;6.90;99.90;;;;;;4964010;28;19914;-71
2021/03/11 03:28:33;;;;;;;;;;;6.90;99.90;;;;;;4960139;28;19918;-71
2021/03/11 03:31:01;;;;;;;;;;;7.00;99.90;;;;;;4945295;28;20565;-71
2021/03/11 03:33:27;;;;;;;;;;;7.00;99.90;;;;;;4946527;29;20348;-71
2021/03/11 03:35:54;;;;;;;;;;;7.00;99.90;;;;;;4944725;28;19910;-71
2021/03/11 03:38:20;;;;;;;;;;;7.10;99.90;;;;;;4946664;29;19945;-71
2021/03/11 03:40:48;;;;;;;;;;;7.10;99.90;;;;;;4949508;29;20367;-71
2021/03/11 03:43:34;;;;;;;;;;;7.20;99.90;;;;;;4965463;28;19917;-71
2021/03/11 03:46:01;;;;;;;;;;;7.20;99.90;;;;;;4947665;29;19914;-71
2021/03/11 03:48:30;;;;;;;;;;;7.20;99.90;;;;;;4948528;29;19915;-71
2021/03/11 03:50:56;;;;;;;;;;;7.20;99.90;;;;;;4948079;29;19925;-71
2021/03/11 03:53:22;;;;;;;;;;;7.20;99.90;;;;;;4946896;29;19911;-71
2021/03/11 03:55:51;;;;;;;;;;;7.20;99.90;;;;;;4967233;28;20014;-71
2021/03/11 03:58:17;;;;;;;;;;;7.30;99.90;;;;;;4949096;29;19949;-71
2021/03/11 04:00:42;;;;;;;;;;;7.30;99.90;;;;;;4945208;29;19942;-71
2021/03/11 04:03:08;;;;;;;;;;;7.30;99.90;;;;;;4945062;29;19929;-71
2021/03/11 04:05:36;;;;;;;;;;;7.40;99.90;;;;;;4962527;28;19918;-71
2021/03/11 04:08:02;;;;;;;;;;;7.50;99.90;;;;;;4966590;28;19965;-71
2021/03/11 04:10:30;;;;;;;;;;;7.50;99.90;;;;;;4948599;29;20054;-71
2021/03/11 04:12:56;;;;;;;;;;;7.60;99.90;;;;;;4945406;29;19951;-71
2021/03/11 04:15:24;;;;;;;;;;;7.50;99.90;;;;;;4946230;29;19991;-71
2021/03/11 04:17:52;;;;;;;;;;;7.50;99.90;;;;;;4949206;29;19914;-71
2021/03/11 04:20:18;;;;;;;;;;;7.50;99.90;;;;;;4946889;28;19911;-71
2021/03/11 04:22:43;;;;;;;;;;;7.50;99.90;;;;;;4948580;29;20380;-71
2021/03/11 04:25:09;;;;;;;;;;;7.50;99.90;;;;;;4945868;29;20552;-71
2021/03/11 04:27:37;;;;;;;;;;;7.50;99.90;;;;;;4931690;29;20012;-71
2021/03/11 04:30:03;;;;;;;;;;;7.50;99.90;;;;;;4948151;28;20476;-71
2021/03/11 04:32:31;;;;;;;;;;;7.50;99.90;;;;;;4949765;29;19921;-71
2021/03/11 04:34:57;;;;;;;;;;;7.50;99.90;;;;;;4949750;29;19937;-71
2021/03/11 04:37:23;;;;;;;;;;;7.60;99.90;;;;;;4966956;28;20291;-71
2021/03/11 04:39:48;;;;;;;;;;;7.60;99.90;;;;;;4945917;28;20434;-71
2021/03/11 04:42:14;;;;;;;;;;;7.60;99.90;;;;;;4949070;28;19910;-71
2021/03/11 04:44:39;;;;;;;;;;;7.60;99.90;;;;;;4949376;29;19919;-71
2021/03/11 04:47:07;;;;;;;;;;;7.70;99.90;;;;;;4943141;29;19922;-71
2021/03/11 04:49:33;;;;;;;;;;;7.70;99.90;;;;;;4947383;28;19918;-71
2021/03/11 04:51:59;;;;;;;;;;;7.70;99.90;;;;;;4948255;28;19918;-71
2021/03/11 04:54:25;;;;;;;;;;;7.70;99.90;;;;;;4929957;29;19946;-71
2021/03/11 04:56:50;;;;;;;;;;;7.70;99.90;;;;;;4946457;29;19921;-71
2021/03/11 04:59:18;;;;;;;;;;;7.70;99.90;;;;;;4943878;29;19919;-71
2021/03/11 05:01:45;;;;;;;;;;;7.80;99.90;;;;;;4948010;29;20363;-71
2021/03/11 05:04:11;;;;;;;;;;;7.80;99.90;;;;;;4947565;29;19910;-71
2021/03/11 05:06:36;;;;;;;;;;;7.80;99.90;;;;;;4946943;28;19925;-71
2021/03/11 05:09:02;;;;;;;;;;;7.80;99.90;;;;;;4945779;29;19917;-71
2021/03/11 05:11:28;;;;;;;;;;;7.80;99.90;;;;;;4966457;28;20380;-71
2021/03/11 05:13:53;;;;;;;;;;;7.80;99.90;;;;;;4949057;29;19915;-71
2021/03/11 05:16:21;;;;;;;;;;;7.90;99.90;;;;;;4945366;28;19989;-71
2021/03/11 05:18:49;;;;;;;;;;;7.90;99.90;;;;;;4946440;29;20330;-71
2021/03/11 05:21:17;;;;;;;;;;;7.80;99.90;;;;;;4944960;29;19911;-71
2021/03/11 05:23:42;;;;;;;;;;;7.80;99.90;;;;;;4947556;28;19921;-71
2021/03/11 05:26:08;;;;;;;;;;;7.80;99.90;;;;;;4944763;28;19914;-71
2021/03/11 05:28:34;;;;;;;;;;;7.80;99.90;;;;;;4946167;29;20386;-73
2021/03/11 05:30:59;;;;;;;;;;;7.80;99.90;;;;;;4947550;29;19962;-71
2021/03/11 05:33:25;;;;;;;;;;;7.90;99.90;;;;;;4947007;29;19941;-73
2021/03/11 05:35:50;;;;;;;;;;;7.90;99.90;;;;;;4945687;28;19919;-70
2021/03/11 05:38:16;;;;;;;;;;;7.90;99.90;;;;;;4945886;29;20530;-71
2021/03/11 05:40:41;;;;;;;;;;;7.90;99.90;;;;;;4948242;29;19918;-70
2021/03/11 05:43:07;;;;;;;;;;;7.90;99.90;;;;;;4948656;28;19914;-70
2021/03/11 05:45:38;;;;;;;;;;;7.90;99.90;;;;;;4945020;29;19930;-70
2021/03/11 05:48:03;;;;;;;;;;;7.90;99.90;;;;;;4944826;29;20347;-70
2021/03/11 05:50:31;;;;;;;;;;;7.90;99.90;;;;;;4928330;29;19918;-70
2021/03/11 05:52:57;;;;;;;;;;;8.00;99.90;;;;;;4945461;29;20005;-71
2021/03/11 05:55:23;;;;;;;;;;;8.00;99.90;;;;;;4927951;29;19978;-70
2021/03/11 05:57:49;;;;;;;;;;;8.00;99.90;;;;;;4944839;29;19926;-70
2021/03/11 06:00:17;;;;;;;;;;;8.00;99.90;;;;;;4945563;29;19945;-70
2021/03/11 06:02:45;;;;;;;;;;;8.00;99.90;;;;;;4945176;28;19917;-70
2021/03/11 06:05:11;;;;;;;;;;;8.00;99.90;;;;;;4944549;29;19924;-71
2021/03/11 06:07:37;;;;;;;;;;;8.00;99.90;;;;;;4945167;28;19910;-71
2021/03/11 06:10:04;;;;;;;;;;;8.00;99.90;;;;;;4944812;29;19922;-71
2021/03/11 06:12:29;;;;;;;;;;;8.00;99.90;;;;;;4944770;28;19925;-70
2021/03/11 06:15:02;;;;;;;;;;;8.00;99.90;;;;;;4946650;28;19911;-73
2021/03/11 06:17:28;;;;;;;;;;;8.00;99.90;;;;;;4944875;29;19922;-71
2021/03/11 06:19:53;;;;;;;;;;;8.00;99.90;;;;;;4947552;28;20336;-71
2021/03/11 06:22:19;;;;;;;;;;;7.90;99.90;;;;;;4945933;29;20020;-71
2021/03/11 06:24:47;;;;;;;;;;;8.00;99.90;;;;;;4946851;28;19926;-73
2021/03/11 06:27:12;;;;;;;;;;;8.00;99.90;;;;;;4946644;29;19914;-71
2021/03/11 06:29:40;;;;;;;;;;;8.00;99.90;;;;;;4945559;29;19925;-71
2021/03/11 06:32:09;;;;;;;;;;;8.10;99.90;;;;;;4947513;29;19918;-70
2021/03/11 06:34:36;;;;;;;;;;;8.10;99.90;;;;;;4945432;29;19910;-71
2021/03/11 06:37:04;;;;;;;;;;;8.10;99.90;;;;;;4947682;29;19918;-71
2021/03/11 06:39:30;;;;;;;;;;;8.10;99.90;;;;;;4604031;28;9999701;-70
2021/03/11 06:41:56;;;;;;;;;;;8.10;99.90;;;;;;4946370;28;19966;-72
2021/03/11 06:44:35;;;;;;;;;;;8.00;99.90;;;;;;4943175;29;19926;-71
2021/03/11 06:47:01;;;;;;;;;;;8.10;99.90;;;;;;4947228;28;20367;-71
2021/03/11 06:49:26;;;;;;;;;;;8.10;99.90;;;;;;4946635;29;20416;-71
2021/03/11 06:52:08;;;;;;;;;;;8.10;99.90;;;;;;4942220;29;19910;-71
2021/03/11 06:55:10;;;;;;;;;;;8.00;99.90;;;;;;4943766;29;19981;-71
2021/03/11 06:57:36;;;;;;;;;;;8.10;99.90;;;;;;4905660;29;19926;-71
2021/03/11 07:00:14;;;;;;;;;;;8.10;99.90;;;;;;4936364;28;19915;-72
2021/03/11 07:02:48;;;;;;;;;;;8.10;99.90;;;;;;4943637;29;19918;-72
2021/03/11 07:05:16;;;;;;;;;;;8.10;99.90;;;;;;4944859;29;19922;-72
2021/03/11 07:07:41;;;;;;;;;;;8.10;99.90;;;;;;4944580;29;19921;-74
2021/03/11 07:10:07;;;;;;;;;;;8.10;99.90;;;;;;4958025;28;19919;-74
2021/03/11 07:12:48;;;;;;;;;;;8.10;99.90;;;;;;4946203;28;19911;-73
2021/03/11 07:15:14;;;;;;;;;;;8.10;99.90;;;;;;4947326;28;20359;-72
2021/03/11 07:17:40;;;;;;;;;;;8.20;99.90;;;;;;4942685;28;19932;-72
2021/03/11 07:20:05;;;;;;;;;;;8.20;99.90;;;;;;4948327;28;19910;-72
2021/03/11 07:22:31;;;;;;;;;;;8.20;99.90;;;;;;4958840;28;21896;-72
2021/03/11 07:24:56;;;;;;;;;;;8.20;99.90;;;;;;4942458;28;20300;-71
2021/03/11 07:27:22;;;;;;;;;;;8.30;99.90;;;;;;4946715;28;19918;-72
2021/03/11 07:30:01;;;;;;;;;;;8.30;99.90;;;;;;4961869;28;20340;-71
2021/03/11 07:32:26;;;;;;;;;;;8.40;99.90;;;;;;4946404;29;20005;-71
2021/03/11 07:34:52;;;;;;;;;;;8.30;99.90;;;;;;4947101;29;20009;-72
2021/03/11 07:37:20;;;;;;;;;;;8.30;99.90;;;;;;4929592;29;20008;-71
2021/03/11 07:39:48;;;;;;;;;;;8.40;99.90;;;;;;4945784;29;19996;-71
2021/03/11 07:42:13;;;;;;;;;;;8.40;99.90;;;;;;4943551;28;19915;-71
2021/03/11 07:44:39;;;;;;;;;;;8.40;99.90;;;;;;4943194;28;19918;-71
2021/03/11 07:47:05;;;;;;;;;;;8.40;99.90;;;;;;4944707;28;19918;-71
2021/03/11 07:49:31;;;;;;;;;;;8.40;99.90;;;;;;4945391;28;19918;-72
2021/03/11 07:51:56;;;;;;;;;;;8.40;99.90;;;;;;4944716;29;19918;-73
2021/03/11 07:54:22;;;;;;;;;;;8.40;99.90;;;;;;4946224;28;19914;-72
2021/03/11 07:56:51;;;;;;;;;;;8.40;99.90;;;;;;4943054;29;19925;-72
2021/03/11 07:59:18;;;;;;;;;;;8.40;99.90;;;;;;4924760;29;19973;-72
2021/03/11 08:01:51;;;;;;;;;;;8.40;99.90;;;;;;4945526;29;19973;-72
2021/03/11 08:04:16;;;;;;;;;;;8.40;99.90;;;;;;4944912;29;20072;-71
2021/03/11 08:06:42;;;;;;;;;;;8.40;99.90;;;;;;4947591;28;20520;-72
2021/03/11 08:09:10;;;;;;;;;;;8.50;99.90;;;;;;4942780;29;19937;-72
2021/03/11 08:11:36;;;;;;;;;;;8.40;99.90;;;;;;4944450;29;19918;-73
2021/03/11 08:14:15;;;;;;;;;;;8.50;99.90;;;;;;4947216;29;19918;-73
2021/03/11 08:16:43;;;;;;;;;;;8.40;99.90;;;;;;4948567;29;20001;-71
2021/03/11 08:19:08;;;;;;;;;;;8.40;99.90;;;;;;4942812;29;19923;-71
2021/03/11 08:21:36;;;;;;;;;;;8.40;99.90;;;;;;4947159;29;19911;-71
2021/03/11 08:24:02;;;;;;;;;;;8.40;99.90;;;;;;4947652;28;19914;-71
2021/03/11 08:26:54;;;;;;;;;;;8.40;99.90;;;;;;4943446;28;19910;-71
2021/03/11 08:29:19;;;;;;;;;;;8.40;99.90;;;;;;4947503;28;19911;-71
2021/03/11 08:31:47;;;;;;;;;;;8.50;99.90;;;;;;4949937;28;19969;-70
2021/03/11 08:34:31;;;;;;;;;;;8.50;99.90;;;;;;4947175;28;19910;-71
2021/03/11 08:37:14;;;;;;;;;;;8.40;99.90;;;;;;4948690;28;20272;-71
2021/03/11 08:39:40;;;;;;;;;;;8.40;99.90;;;;;;4942984;29;20202;-71
2021/03/11 08:42:25;;;;;;;;;;;8.40;99.90;;;;;;4944886;28;20013;-70
2021/03/11 08:44:53;;;;;;;;;;;8.40;99.90;;;;;;4947732;28;19940;-72
2021/03/11 08:47:21;;;;;;;;;;;8.30;99.90;;;;;;4927715;29;19918;-71
2021/03/11 08:49:47;;;;;;;;;;;8.30;99.90;;;;;;4947983;29;19922;-71
2021/03/11 08:52:45;;;;;;;;;;;8.30;99.90;;;;;;4943643;29;19911;-69
2021/03/11 08:55:29;;;;;;;;;;;8.40;99.90;;;;;;4935599;28;19925;-69
2021/03/11 08:57:55;;;;;;;;;;;8.40;99.90;;;;;;4949990;29;19922;-69
2021/03/11 09:00:43;;;;;;;;;;;8.30;99.90;;;;;;4944627;29;19914;-70
2021/03/11 09:03:32;;;;;;;;;;;8.40;99.90;;;;;;4943592;29;19929;-70
2021/03/11 09:11:41;;;;;;;;;;;8.50;99.90;;;;;;5131809;23;10004684;-70
2021/03/11 09:22:30;;;;;;;;;;;8.50;99.90;;;;;;4925577;28;20020;-74
2021/03/11 09:25:12;;;;;;;;;;;8.60;99.90;;;;;;4945948;29;19914;-74
2021/03/11 09:27:38;;;;;;;;;;;8.60;99.90;;;;;;4947211;28;19914;-74
2021/03/11 09:30:06;;;;;;;;;;;8.60;99.90;;;;;;4945123;29;20293;-71
2021/03/11 09:32:33;;;;;;;;;;;8.60;99.90;;;;;;4960719;28;19919;-72
2021/03/11 09:35:00;;;;;;;;;;;8.60;99.90;;;;;;4945231;29;19910;-75
2021/03/11 09:38:05;;;;;;;;;;;8.60;99.90;;;;;;4944262;28;19958;-74
2021/03/11 09:40:40;;;;;;;;;;;8.70;99.90;;;;;;4942587;28;19929;-73
2021/03/11 09:43:14;;;;;;;;;;;8.70;99.90;;;;;;4932499;28;19910;-73
2021/03/11 09:45:47;;;;;;;;;;;8.70;99.90;;;;;;4928872;29;19949;-73
2021/03/11 09:48:19;;;;;;;;;;;8.70;99.90;;;;;;4943702;28;19914;-73
2021/03/11 09:50:51;;;;;;;;;;;8.70;99.90;;;;;;4943671;28;19910;-73
2021/03/11 09:53:18;;;;;;;;;;;8.70;99.90;;;;;;4944784;28;20026;-73
2021/03/11 09:55:43;;;;;;;;;;;8.70;99.90;;;;;;4930249;29;19910;-74
2021/03/11 09:58:15;;;;;;;;;;;8.70;99.90;;;;;;4927882;29;19925;-73
2021/03/11 10:00:44;;;;;;;;;;;8.80;99.90;;;;;;4927510;29;20432;-73
2021/03/11 10:03:16;;;;;;;;;;;8.70;99.90;;;;;;4928624;28;20374;-73
2021/03/11 10:05:45;;;;;;;;;;;8.80;99.90;;;;;;4929066;29;20368;-73
2021/03/11 10:08:24;;;;;;;;;;;8.80;99.90;;;;;;4943285;28;19980;-73
2021/03/11 10:11:02;;;;;;;;;;;8.80;99.90;;;;;;4944037;28;19910;-73
2021/03/11 10:13:33;;;;;;;;;;;8.80;99.90;;;;;;4943122;29;19914;-73
2021/03/11 10:16:01;;;;;;;;;;;8.90;99.90;;;;;;4942319;29;19961;-73
2021/03/11 10:18:27;;;;;;;;;;;8.90;99.90;;;;;;4956872;28;19914;-73
2021/03/11 10:21:02;;;;;;;;;;;9.00;99.90;;;;;;4957369;28;20293;-73
2021/03/11 10:23:27;;;;;;;;;;;9.00;99.90;;;;;;4944538;29;19954;-73
2021/03/11 10:26:15;;;;;;;;;;;9.00;99.90;;;;;;4942702;29;19942;-73
2021/03/11 10:28:41;;;;;;;;;;;9.00;99.90;;;;;;4941877;29;19915;-73
2021/03/11 10:31:07;;;;;;;;;;;9.10;99.90;;;;;;4957273;28;19925;-73
2021/03/11 10:33:36;;;;;;;;;;;9.10;99.90;;;;;;4939814;28;20446;-73
2021/03/11 10:36:11;;;;;;;;;;;9.10;99.90;;;;;;4958668;28;19911;-73
2021/03/11 10:38:36;;;;;;;;;;;9.20;99.90;;;;;;4943693;28;20359;-73
2021/03/11 10:41:11;;;;;;;;;;;9.20;99.90;;;;;;4944059;28;19911;-73
2021/03/11 10:43:36;;;;;;;;;;;9.20;99.90;;;;;;4941357;28;19910;-73
2021/03/11 10:46:02;;;;;;;;;;;9.20;99.90;;;;;;4945111;29;19910;-73
2021/03/11 10:48:28;;;;;;;;;;;9.20;99.90;;;;;;4944620;28;19921;-73
2021/03/11 10:50:54;;;;;;;;;;;9.20;99.90;;;;;;4946063;29;19910;-73
2021/03/11 10:53:20;;;;;;;;;;;9.30;99.90;;;;;;4947224;29;19972;-73
2021/03/11 10:55:46;;;;;;;;;;;9.30;99.90;;;;;;4952705;28;19918;-73
2021/03/11 10:58:37;;;;;;;;;;;9.40;99.90;;;;;;4947927;28;19918;-73
2021/03/11 11:01:06;;;;;;;;;;;9.30;99.90;;;;;;4947697;29;19972;-73
2021/03/11 11:03:34;;;;;;;;;;;9.30;99.90;;;;;;4945061;29;19914;-73
2021/03/11 11:06:02;;;;;;;;;;;9.30;99.90;;;;;;4946680;28;19918;-73
2021/03/11 11:08:30;;;;;;;;;;;9.40;99.90;;;;;;4961250;28;19917;-73
2021/03/11 11:10:56;;;;;;;;;;;9.40;99.90;;;;;;4946767;29;19946;-73
2021/03/11 11:13:21;;;;;;;;;;;9.40;99.90;;;;;;4945923;29;20276;-73
2021/03/11 11:15:49;;;;;;;;;;;9.50;99.90;;;;;;4946205;28;19941;-73
2021/03/11 11:18:15;;;;;;;;;;;9.50;99.90;;;;;;4947341;29;20005;-73
2021/03/11 11:20:45;;;;;;;;;;;9.50;99.90;;;;;;4947590;28;20517;-73
2021/03/11 11:23:11;;;;;;;;;;;9.50;99.90;;;;;;4947001;29;19976;-73
2021/03/11 11:25:36;;;;;;;;;;;9.60;99.90;;;;;;4949320;28;19918;-74
2021/03/11 11:28:02;;;;;;;;;;;9.60;99.90;;;;;;4948028;28;20450;-71
2021/03/11 11:30:29;;;;;;;;;;;9.70;99.90;;;;;;4948171;28;19958;-74
2021/03/11 11:32:57;;;;;;;;;;;9.70;99.90;;;;;;4948769;28;19933;-73
2021/03/11 11:35:25;;;;;;;;;;;9.80;99.90;;;;;;4947509;28;19936;-74
2021/03/11 11:37:54;;;;;;;;;;;9.80;99.90;;;;;;4949378;28;19973;-73
2021/03/11 11:40:22;;;;;;;;;;;9.90;99.90;;;;;;4944826;29;19917;-73
2021/03/11 11:42:47;;;;;;;;;;;9.90;99.90;;;;;;4950238;28;19922;-73
2021/03/11 11:45:14;;;;;;;;;;;9.90;99.90;;;;;;4949291;29;20359;-74
2021/03/11 11:47:42;;;;;;;;;;;10.00;99.90;;;;;;4949707;28;19918;-73
2021/03/11 11:50:08;;;;;;;;;;;10.10;99.90;;;;;;4963359;28;19921;-74
2021/03/11 11:52:36;;;;;;;;;;;10.10;99.90;;;;;;4947373;28;20472;-74
2021/03/11 11:55:03;;;;;;;;;;;10.20;99.90;;;;;;4948963;29;19911;-74
2021/03/11 11:57:31;;;;;;;;;;;10.20;99.90;;;;;;4962917;28;20292;-73
2021/03/11 11:59:57;;;;;;;;;;;10.30;99.90;;;;;;4959224;28;20490;-74
2021/03/11 12:02:22;;;;;;;;;;;10.40;99.90;;;;;;4948444;29;19918;-73
2021/03/11 12:04:50;;;;;;;;;;;10.40;99.90;;;;;;4945673;29;20328;-73
2021/03/11 12:07:18;;;;;;;;;;;10.50;99.90;;;;;;4947508;28;19928;-73
2021/03/11 12:09:45;;;;;;;;;;;10.60;99.90;;;;;;4949769;29;19911;-73
2021/03/11 12:12:15;;;;;;;;;;;10.60;99.90;;;;;;4949288;28;19914;-73
2021/03/11 12:14:43;;;;;;;;;;;10.70;99.90;;;;;;4962321;28;19921;-73
2021/03/11 12:17:11;;;;;;;;;;;10.90;99.90;;;;;;4949798;29;19987;-73
2021/03/11 12:19:37;;;;;;;;;;;10.90;99.90;;;;;;4950081;28;19968;-73
2021/03/11 12:22:05;;;;;;;;;;;11.00;99.90;;;;;;4946314;28;19961;-73
2021/03/11 12:24:33;;;;;;;;;;;11.10;99.90;;;;;;4949052;29;19918;-71
2021/03/11 12:26:58;;;;;;;;;;;11.20;99.90;;;;;;4967049;28;19914;-71
2021/03/11 12:29:26;;;;;;;;;;;11.20;99.90;;;;;;4948546;28;19914;-73
2021/03/11 12:31:51;;;;;;;;;;;11.30;99.90;;;;;;4948085;28;19953;-74
2021/03/11 12:34:20;;;;;;;;;;;11.30;99.90;;;;;;4949875;28;19938;-74
2021/03/11 12:36:45;;;;;;;;;;;11.30;99.90;;;;;;4948707;28;19914;-74
2021/03/11 12:39:11;;;;;;;;;;;11.40;99.90;;;;;;4960993;28;19940;-73
2021/03/11 12:41:36;;;;;;;;;;;11.40;99.90;;;;;;4953284;28;19910;-74
2021/03/11 12:44:04;;;;;;;;;;;11.50;99.90;;;;;;4947626;28;19911;-74
2021/03/11 12:46:30;;;;;;;;;;;11.50;99.90;;;;;;4960647;28;19911;-73
2021/03/11 12:48:55;;;;;;;;;;;11.50;99.90;;;;;;4947093;28;20360;-73
2021/03/11 12:51:26;;;;;;;;;;;11.50;99.90;;;;;;4947990;28;20400;-73
2021/03/11 12:53:51;;;;;;;;;;;11.50;99.90;;;;;;4943216;29;19925;-73
2021/03/11 12:56:19;;;;;;;;;;;11.60;99.90;;;;;;4948584;28;20005;-73
2021/03/11 12:58:47;;;;;;;;;;;11.70;99.90;;;;;;4947458;29;19929;-73
2021/03/11 13:01:12;;;;;;;;;;;11.70;99.90;;;;;;4961096;28;19910;-73
2021/03/11 13:03:38;;;;;;;;;;;11.80;99.90;;;;;;4946372;29;20359;-73
2021/03/11 13:06:04;;;;;;;;;;;11.80;99.90;;;;;;4947824;28;20288;-74
2021/03/11 13:08:32;;;;;;;;;;;11.90;99.90;;;;;;4947586;28;19911;-73
2021/03/11 13:10:59;;;;;;;;;;;12.00;99.90;;;;;;4945996;28;19938;-74
2021/03/11 13:13:27;;;;;;;;;;;12.10;99.90;;;;;;4948864;29;19993;-74
2021/03/11 13:15:53;;;;;;;;;;;12.30;99.90;;;;;;4949609;28;19915;-73
2021/03/11 13:18:18;;;;;;;;;;;12.50;99.90;;;;;;4944670;29;19989;-73
2021/03/11 13:20:46;;;;;;;;;;;12.70;99.90;;;;;;4946376;28;20332;-71
2021/03/11 13:23:12;;;;;;;;;;;12.70;99.90;;;;;;4950671;28;19925;-74
2021/03/11 13:25:42;;;;;;;;;;;12.80;99.90;;;;;;4948857;28;19918;-73
2021/03/11 13:28:08;;;;;;;;;;;13.00;99.90;;;;;;4946494;28;19938;-73
2021/03/11 13:30:33;;;;;;;;;;;13.00;99.90;;;;;;4946534;29;19926;-73
2021/03/11 13:32:59;;;;;;;;;;;13.10;99.90;;;;;;4953865;28;20545;-73
2021/03/11 13:35:27;;;;;;;;;;;13.20;99.90;;;;;;4946703;29;19910;-73
2021/03/11 13:37:52;;;;;;;;;;;13.30;99.90;;;;;;4948399;29;19925;-73
2021/03/11 13:40:18;;;;;;;;;;;13.40;96.10;;;;;;4946786;28;19914;-72
2021/03/11 13:42:44;;;;;;;;;;;13.40;88.10;;;;;;4947829;29;19914;-73
2021/03/11 13:45:12;;;;;;;;;;;13.50;97.80;;;;;;4948558;29;19937;-73
2021/03/11 13:47:37;;;;;;;;;;;13.50;91.80;;;;;;4947653;29;19918;-73
2021/03/11 13:50:04;;;;;;;;;;;13.60;86.90;;;;;;4948796;29;19911;-73
2021/03/11 13:52:29;;;;;;;;;;;13.50;80.50;;;;;;4949315;28;20272;-73
2021/03/11 13:54:55;;;;;;;;;;;13.50;82.90;;;;;;4949420;28;19906;-73
2021/03/11 13:57:20;;;;;;;;;;;13.40;84.40;;;;;;4948342;29;19934;-72
2021/03/11 13:59:46;;;;;;;;;;;13.40;89.80;;;;;;4947824;29;19910;-73
2021/03/11 14:02:14;;;;;;;;;;;13.40;89.80;;;;;;4943882;29;19915;-73
2021/03/11 14:04:39;;;;;;;;;;;13.30;93.70;;;;;;4945668;28;19918;-72
2021/03/11 14:07:07;;;;;;;;;;;13.30;94.00;;;;;;4947268;28;19926;-73
2021/03/11 14:09:33;;;;;;;;;;;13.30;92.90;;;;;;4946002;29;20054;-73
2021/03/11 14:11:59;;;;;;;;;;;13.20;92.50;;;;;;4946620;28;19947;-73
2021/03/11 14:14:24;;;;;;;;;;;13.20;93.90;;;;;;4943585;28;19937;-72
2021/03/11 14:16:52;;;;;;;;;;;13.20;94.20;;;;;;4945332;29;19910;-72
2021/03/11 14:19:18;;;;;;;;;;;13.20;91.90;;;;;;4946834;29;20435;-73
2021/03/11 14:21:43;;;;;;;;;;;13.00;91.60;;;;;;4946079;28;20013;-73
2021/03/11 14:24:09;;;;;;;;;;;12.80;91.20;;;;;;4943064;29;19989;-73
2021/03/11 14:26:35;;;;;;;;;;;12.60;92.50;;;;;;4947041;28;19993;-73
2021/03/11 14:29:03;;;;;;;;;;;12.40;94.30;;;;;;4946340;28;19915;-73
2021/03/11 14:31:28;;;;;;;;;;;12.30;94.10;;;;;;4945281;29;20364;-73
2021/03/11 14:33:56;;;;;;;;;;;12.20;95.40;;;;;;4946380;28;19957;-73
2021/03/11 14:36:24;;;;;;;;;;;12.10;96.70;;;;;;4944648;28;20352;-73
2021/03/11 14:38:50;;;;;;;;;;;12.00;98.10;;;;;;4946038;29;19914;-73
2021/03/11 14:41:15;;;;;;;;;;;12.00;98.40;;;;;;4947495;29;19973;-73
2021/03/11 14:43:41;;;;;;;;;;;11.90;99.80;;;;;;4945867;29;19910;-70
2021/03/11 14:46:06;;;;;;;;;;;11.80;99.90;;;;;;4947297;29;19910;-70